Lop Buri, Thailand

5:28 PM ICT on July 25, 2014 (GMT +0700)
Bangkok International (VTBD) Elev 13 ft | 13.92 °N, 100.61 °E | Change Station

Current weather conditions updated 28 minutes ago

Mostly Cloudy
Mostly Cloudy
90 °F
Feels Like 98 °F
N
12
Wind Variable Wind from SSW

Tomorrow is forecast to be nearly the same temperature as today. Afternoon showers and thunderstorms.

Today
High -- | Low -- °F
--% Chance of Precip.
Yesterday
High -- | Low -- °F
Precip. -- in
5:58 AM 6:49 PM
Waning Crescent, 2% visible
Pressure 29.65 in
Visibility 6.2 miles
Clouds Few 2000 ft
Scattered Clouds 12000 ft
Mostly Cloudy 30000 ft
Heat Index 98 °F
Dew Point 73 °F
Humidity 59%
Rainfall 0.00 in
Snow Depth Not available.
UV 2 out of 12
Pollen Not available.
Air Quality Not available.
Flu Activity Not available.
METAR VTBD 251000Z 20010KT 9999 FEW020 SCT120 BKN300 32/23 Q1004 NOSIG

More Conditions Fewer Conditions

Pressure 29.65 in
Visibility 6.2 miles
Clouds Few 2000 ft
Scattered Clouds 12000 ft
Mostly Cloudy 30000 ft
Heat Index 98 °F
Dew Point 73 °F
Humidity 59%
Rainfall 0.00 in
Snow Depth Not available.
UV 2 out of 12
Pollen Not available.
Air Quality Not available.
Flu Activity Not available.
METAR VTBD 251000Z 20010KT 9999 FEW020 SCT120 BKN300 32/23 Q1004 NOSIG

More Conditions Fewer Conditions

10-Day Weather Forecast

Almanac

Astronomy

Jul. 25, 2014 Rise Set
Actual Time 5:58 AM ICT 6:49 PM ICT
Civil Twilight 5:35 AM ICT 7:12 PM ICT
Nautical Twilight 5:08 AM ICT 7:39 PM ICT
Astronomical Twilight 4:41 AM ICT 8:06 PM ICT
Moon 4:26 AM ICT 5:30 PM ICT
Length of Visible Light 13h 36m
Length of Day
12h 50m
Tomorrow will be 0m 32s shorter.
Waning Crescent, 2% of the Moon is Illuminated
Today
Waning Crescent
Jul 26
New
Aug 3
First Quarter
Aug 10
Full
Aug 17
Last Quarter

Yesterday's Extremes

Country Highs Country Lows

Community

WunderPhotos

Upload Photos

1,737,277 photos uploaded!

Nearby

Snow Depth

Not available.

Earthquake Activity

City Distance Mag. Time & Date
No recent earthquake activity has been reported nearby.
Minimum magnitude displayed is 2.5.

Coastal Water Temperatures

Place Temperature
No Stations Reporting

Nearby Weather Stations

There are no personal weather stations in this area.